sensor_id;sensor_type;location;lat;lon;timestamp;P1;durP1;ratioP1;P2;durP2;ratioP2
61038;SDS011;46919;45.816;3.104;2023-05-07T00:00:28;2.70;;;1.23;;
61038;SDS011;46919;45.816;3.104;2023-05-07T00:02:53;2.22;;;1.10;;
61038;SDS011;46919;45.816;3.104;2023-05-07T00:05:19;3.63;;;1.27;;
61038;SDS011;46919;45.816;3.104;2023-05-07T00:07:44;2.55;;;1.48;;
61038;SDS011;46919;45.816;3.104;2023-05-07T00:10:10;3.17;;;1.20;;
61038;SDS011;46919;45.816;3.104;2023-05-07T00:12:37;5.50;;;1.13;;
61038;SDS011;46919;45.816;3.104;2023-05-07T00:15:02;2.45;;;1.35;;
61038;SDS011;46919;45.816;3.104;2023-05-07T00:17:29;2.25;;;1.17;;
61038;SDS011;46919;45.816;3.104;2023-05-07T00:19:55;3.15;;;1.58;;
61038;SDS011;46919;45.816;3.104;2023-05-07T00:22:20;3.40;;;1.10;;
61038;SDS011;46919;45.816;3.104;2023-05-07T00:24:46;2.33;;;1.30;;
61038;SDS011;46919;45.816;3.104;2023-05-07T00:27:11;1.48;;;1.10;;
61038;SDS011;46919;45.816;3.104;2023-05-07T00:29:37;3.00;;;1.27;;
61038;SDS011;46919;45.816;3.104;2023-05-07T00:32:02;3.83;;;1.15;;
61038;SDS011;46919;45.816;3.104;2023-05-07T00:34:28;2.50;;;1.25;;
61038;SDS011;46919;45.816;3.104;2023-05-07T00:36:53;3.63;;;1.35;;
61038;SDS011;46919;45.816;3.104;2023-05-07T00:39:18;4.10;;;1.30;;
61038;SDS011;46919;45.816;3.104;2023-05-07T00:41:44;3.45;;;1.40;;
61038;SDS011;46919;45.816;3.104;2023-05-07T00:44:10;2.20;;;1.00;;
61038;SDS011;46919;45.816;3.104;2023-05-07T00:46:36;0.90;;;0.65;;
61038;SDS011;46919;45.816;3.104;2023-05-07T00:49:02;0.90;;;0.75;;
61038;SDS011;46919;45.816;3.104;2023-05-07T00:51:28;1.55;;;0.60;;
61038;SDS011;46919;45.816;3.104;2023-05-07T00:53:54;3.17;;;0.70;;
61038;SDS011;46919;45.816;3.104;2023-05-07T00:56:22;2.60;;;0.80;;
61038;SDS011;46919;45.816;3.104;2023-05-07T00:58:49;1.30;;;0.70;;
61038;SDS011;46919;45.816;3.104;2023-05-07T01:01:14;1.75;;;0.90;;
61038;SDS011;46919;45.816;3.104;2023-05-07T01:03:41;2.83;;;1.27;;
61038;SDS011;46919;45.816;3.104;2023-05-07T01:06:07;3.40;;;1.15;;
61038;SDS011;46919;45.816;3.104;2023-05-07T01:08:34;3.70;;;0.80;;
61038;SDS011;46919;45.816;3.104;2023-05-07T01:11:01;1.65;;;1.05;;
61038;SDS011;46919;45.816;3.104;2023-05-07T01:13:28;3.00;;;0.70;;
61038;SDS011;46919;45.816;3.104;2023-05-07T01:15:54;1.38;;;0.98;;
61038;SDS011;46919;45.816;3.104;2023-05-07T01:18:20;2.38;;;1.00;;
61038;SDS011;46919;45.816;3.104;2023-05-07T01:20:46;2.38;;;1.30;;
61038;SDS011;46919;45.816;3.104;2023-05-07T01:23:12;1.38;;;0.90;;
61038;SDS011;46919;45.816;3.104;2023-05-07T01:25:38;2.60;;;0.90;;
61038;SDS011;46919;45.816;3.104;2023-05-07T01:28:03;2.45;;;1.05;;
61038;SDS011;46919;45.816;3.104;2023-05-07T01:30:29;8.82;;;1.02;;
61038;SDS011;46919;45.816;3.104;2023-05-07T01:32:59;2.15;;;0.90;;
61038;SDS011;46919;45.816;3.104;2023-05-07T01:35:30;1.67;;;0.88;;
61038;SDS011;46919;45.816;3.104;2023-05-07T01:38:00;2.30;;;1.00;;
61038;SDS011;46919;45.816;3.104;2023-05-07T01:40:29;3.15;;;1.20;;
61038;SDS011;46919;45.816;3.104;2023-05-07T01:42:55;3.72;;;1.30;;
61038;SDS011;46919;45.816;3.104;2023-05-07T01:45:21;2.13;;;1.17;;
61038;SDS011;46919;45.816;3.104;2023-05-07T01:47:46;2.40;;;1.35;;
61038;SDS011;46919;45.816;3.104;2023-05-07T01:50:12;4.93;;;1.42;;
61038;SDS011;46919;45.816;3.104;2023-05-07T01:52:40;3.60;;;1.30;;
61038;SDS011;46919;45.816;3.104;2023-05-07T01:55:06;2.95;;;1.20;;
61038;SDS011;46919;45.816;3.104;2023-05-07T01:57:32;1.77;;;1.10;;
61038;SDS011;46919;45.816;3.104;2023-05-07T01:59:57;1.23;;;1.08;;
61038;SDS011;46919;45.816;3.104;2023-05-07T02:02:23;1.95;;;1.00;;
61038;SDS011;46919;45.816;3.104;2023-05-07T02:04:48;2.15;;;0.95;;
61038;SDS011;46919;45.816;3.104;2023-05-07T02:07:13;2.03;;;1.10;;
61038;SDS011;46919;45.816;3.104;2023-05-07T02:09:39;4.80;;;1.42;;
61038;SDS011;46919;45.816;3.104;2023-05-07T02:12:04;1.90;;;1.00;;
61038;SDS011;46919;45.816;3.104;2023-05-07T02:14:30;2.85;;;1.25;;
61038;SDS011;46919;45.816;3.104;2023-05-07T02:16:55;3.17;;;1.15;;
61038;SDS011;46919;45.816;3.104;2023-05-07T02:19:21;3.05;;;1.20;;
61038;SDS011;46919;45.816;3.104;2023-05-07T02:21:46;2.65;;;1.40;;
61038;SDS011;46919;45.816;3.104;2023-05-07T02:24:12;2.00;;;1.33;;
61038;SDS011;46919;45.816;3.104;2023-05-07T02:26:39;3.70;;;1.52;;
61038;SDS011;46919;45.816;3.104;2023-05-07T02:29:05;2.70;;;1.60;;
61038;SDS011;46919;45.816;3.104;2023-05-07T02:31:30;3.47;;;1.80;;
61038;SDS011;46919;45.816;3.104;2023-05-07T02:33:56;4.03;;;1.52;;
61038;SDS011;46919;45.816;3.104;2023-05-07T02:36:21;3.00;;;1.40;;
61038;SDS011;46919;45.816;3.104;2023-05-07T02:38:46;3.70;;;1.42;;
61038;SDS011;46919;45.816;3.104;2023-05-07T02:41:12;2.83;;;1.35;;
61038;SDS011;46919;45.816;3.104;2023-05-07T02:43:37;2.85;;;1.80;;
61038;SDS011;46919;45.816;3.104;2023-05-07T02:46:03;3.50;;;1.50;;
61038;SDS011;46919;45.816;3.104;2023-05-07T02:48:30;2.70;;;1.77;;
61038;SDS011;46919;45.816;3.104;2023-05-07T02:50:56;3.15;;;1.77;;
61038;SDS011;46919;45.816;3.104;2023-05-07T02:53:21;2.00;;;1.60;;
61038;SDS011;46919;45.816;3.104;2023-05-07T02:55:47;3.53;;;1.60;;
61038;SDS011;46919;45.816;3.104;2023-05-07T02:58:12;2.58;;;1.85;;
61038;SDS011;46919;45.816;3.104;2023-05-07T03:00:38;2.00;;;1.52;;
61038;SDS011;46919;45.816;3.104;2023-05-07T03:03:03;2.03;;;1.52;;
61038;SDS011;46919;45.816;3.104;2023-05-07T03:05:28;2.92;;;1.65;;
61038;SDS011;46919;45.816;3.104;2023-05-07T03:07:54;2.95;;;1.63;;
61038;SDS011;46919;45.816;3.104;2023-05-07T03:10:19;1.90;;;1.42;;
61038;SDS011;46919;45.816;3.104;2023-05-07T03:12:45;2.55;;;1.60;;
61038;SDS011;46919;45.816;3.104;2023-05-07T03:15:10;3.78;;;1.60;;
61038;SDS011;46919;45.816;3.104;2023-05-07T03:17:39;4.13;;;1.50;;
61038;SDS011;46919;45.816;3.104;2023-05-07T03:20:04;3.30;;;1.60;;
61038;SDS011;46919;45.816;3.104;2023-05-07T03:22:30;3.35;;;1.45;;
61038;SDS011;46919;45.816;3.104;2023-05-07T03:24:56;3.25;;;1.63;;
61038;SDS011;46919;45.816;3.104;2023-05-07T03:27:21;3.20;;;1.40;;
61038;SDS011;46919;45.816;3.104;2023-05-07T03:29:47;1.25;;;1.10;;
61038;SDS011;46919;45.816;3.104;2023-05-07T03:32:12;4.30;;;1.40;;
61038;SDS011;46919;45.816;3.104;2023-05-07T03:34:38;1.75;;;1.48;;
61038;SDS011;46919;45.816;3.104;2023-05-07T03:37:03;3.95;;;1.30;;
61038;SDS011;46919;45.816;3.104;2023-05-07T03:39:29;2.55;;;1.38;;
61038;SDS011;46919;45.816;3.104;2023-05-07T03:41:55;2.53;;;1.42;;
61038;SDS011;46919;45.816;3.104;2023-05-07T03:44:20;3.90;;;1.48;;
61038;SDS011;46919;45.816;3.104;2023-05-07T03:46:46;3.30;;;1.23;;
61038;SDS011;46919;45.816;3.104;2023-05-07T03:49:11;3.42;;;1.25;;
61038;SDS011;46919;45.816;3.104;2023-05-07T03:51:37;1.73;;;1.42;;
61038;SDS011;46919;45.816;3.104;2023-05-07T03:54:02;2.80;;;1.33;;
61038;SDS011;46919;45.816;3.104;2023-05-07T03:56:27;3.08;;;1.20;;
61038;SDS011;46919;45.816;3.104;2023-05-07T03:58:53;2.88;;;1.30;;
61038;SDS011;46919;45.816;3.104;2023-05-07T04:01:19;2.60;;;1.17;;
61038;SDS011;46919;45.816;3.104;2023-05-07T04:03:44;2.15;;;1.10;;
61038;SDS011;46919;45.816;3.104;2023-05-07T04:06:10;2.88;;;1.48;;
61038;SDS011;46919;45.816;3.104;2023-05-07T04:08:35;3.83;;;1.67;;
61038;SDS011;46919;45.816;3.104;2023-05-07T04:11:01;2.78;;;1.60;;
61038;SDS011;46919;45.816;3.104;2023-05-07T04:13:26;3.08;;;1.20;;
61038;SDS011;46919;45.816;3.104;2023-05-07T04:15:52;1.85;;;1.25;;
61038;SDS011;46919;45.816;3.104;2023-05-07T04:18:18;2.45;;;1.40;;
61038;SDS011;46919;45.816;3.104;2023-05-07T04:20:45;4.30;;;1.63;;
61038;SDS011;46919;45.816;3.104;2023-05-07T04:23:10;2.92;;;1.77;;
61038;SDS011;46919;45.816;3.104;2023-05-07T04:25:36;3.67;;;1.70;;
61038;SDS011;46919;45.816;3.104;2023-05-07T04:28:01;1.60;;;1.50;;
61038;SDS011;46919;45.816;3.104;2023-05-07T04:30:26;4.22;;;1.80;;
61038;SDS011;46919;45.816;3.104;2023-05-07T04:32:52;5.78;;;2.47;;
61038;SDS011;46919;45.816;3.104;2023-05-07T04:35:21;4.35;;;2.22;;
61038;SDS011;46919;45.816;3.104;2023-05-07T04:37:46;5.55;;;2.13;;
61038;SDS011;46919;45.816;3.104;2023-05-07T04:40:12;3.05;;;1.67;;
61038;SDS011;46919;45.816;3.104;2023-05-07T04:42:37;3.35;;;2.00;;
61038;SDS011;46919;45.816;3.104;2023-05-07T04:45:03;3.30;;;1.95;;
61038;SDS011;46919;45.816;3.104;2023-05-07T04:47:29;3.50;;;2.70;;
61038;SDS011;46919;45.816;3.104;2023-05-07T04:49:55;5.00;;;2.25;;
61038;SDS011;46919;45.816;3.104;2023-05-07T04:52:20;5.07;;;2.70;;
61038;SDS011;46919;45.816;3.104;2023-05-07T04:54:46;4.13;;;2.22;;
61038;SDS011;46919;45.816;3.104;2023-05-07T04:57:11;4.25;;;2.30;;
61038;SDS011;46919;45.816;3.104;2023-05-07T04:59:37;4.38;;;3.30;;
61038;SDS011;46919;45.816;3.104;2023-05-07T05:02:02;4.32;;;2.42;;
61038;SDS011;46919;45.816;3.104;2023-05-07T05:04:29;4.88;;;2.28;;
61038;SDS011;46919;45.816;3.104;2023-05-07T05:06:55;4.50;;;2.33;;
61038;SDS011;46919;45.816;3.104;2023-05-07T05:09:20;3.08;;;2.22;;
61038;SDS011;46919;45.816;3.104;2023-05-07T05:11:45;5.88;;;2.40;;
61038;SDS011;46919;45.816;3.104;2023-05-07T05:14:11;4.47;;;2.70;;
61038;SDS011;46919;45.816;3.104;2023-05-07T05:16:36;2.85;;;2.50;;
61038;SDS011;46919;45.816;3.104;2023-05-07T05:19:02;2.92;;;2.33;;
61038;SDS011;46919;45.816;3.104;2023-05-07T05:21:27;3.42;;;2.53;;
61038;SDS011;46919;45.816;3.104;2023-05-07T05:23:53;2.90;;;2.30;;
61038;SDS011;46919;45.816;3.104;2023-05-07T05:26:19;3.25;;;2.40;;
61038;SDS011;46919;45.816;3.104;2023-05-07T05:28:46;4.28;;;2.03;;
61038;SDS011;46919;45.816;3.104;2023-05-07T05:31:11;4.40;;;2.47;;
61038;SDS011;46919;45.816;3.104;2023-05-07T05:33:37;5.43;;;2.42;;
61038;SDS011;46919;45.816;3.104;2023-05-07T05:36:02;3.90;;;1.95;;
61038;SDS011;46919;45.816;3.104;2023-05-07T05:38:28;2.85;;;2.22;;
61038;SDS011;46919;45.816;3.104;2023-05-07T05:40:54;3.95;;;1.92;;
61038;SDS011;46919;45.816;3.104;2023-05-07T05:43:19;3.78;;;1.73;;
61038;SDS011;46919;45.816;3.104;2023-05-07T05:45:45;3.05;;;2.10;;
61038;SDS011;46919;45.816;3.104;2023-05-07T05:48:11;5.05;;;2.08;;
61038;SDS011;46919;45.816;3.104;2023-05-07T05:50:36;2.40;;;2.20;;
61038;SDS011;46919;45.816;3.104;2023-05-07T05:53:02;2.08;;;1.70;;
61038;SDS011;46919;45.816;3.104;2023-05-07T05:55:27;3.13;;;2.17;;
61038;SDS011;46919;45.816;3.104;2023-05-07T05:57:53;3.08;;;1.90;;
61038;SDS011;46919;45.816;3.104;2023-05-07T06:00:18;4.32;;;2.03;;
61038;SDS011;46919;45.816;3.104;2023-05-07T06:02:47;2.75;;;2.03;;
61038;SDS011;46919;45.816;3.104;2023-05-07T06:05:12;2.75;;;1.80;;
61038;SDS011;46919;45.816;3.104;2023-05-07T06:07:38;3.33;;;1.80;;
61038;SDS011;46919;45.816;3.104;2023-05-07T06:10:03;3.58;;;2.05;;
61038;SDS011;46919;45.816;3.104;2023-05-07T06:12:29;3.83;;;2.00;;
61038;SDS011;46919;45.816;3.104;2023-05-07T06:14:55;2.33;;;2.00;;
61038;SDS011;46919;45.816;3.104;2023-05-07T06:17:20;3.65;;;1.85;;
61038;SDS011;46919;45.816;3.104;2023-05-07T06:19:45;3.28;;;1.80;;
61038;SDS011;46919;45.816;3.104;2023-05-07T06:22:11;1.98;;;1.65;;
61038;SDS011;46919;45.816;3.104;2023-05-07T06:24:36;2.00;;;1.60;;
61038;SDS011;46919;45.816;3.104;2023-05-07T06:27:02;2.63;;;1.73;;
61038;SDS011;46919;45.816;3.104;2023-05-07T06:29:27;3.05;;;1.77;;
61038;SDS011;46919;45.816;3.104;2023-05-07T06:31:53;2.67;;;1.63;;
61038;SDS011;46919;45.816;3.104;2023-05-07T06:34:18;2.90;;;1.77;;
61038;SDS011;46919;45.816;3.104;2023-05-07T06:36:44;5.80;;;2.10;;
61038;SDS011;46919;45.816;3.104;2023-05-07T06:39:09;4.15;;;1.73;;
61038;SDS011;46919;45.816;3.104;2023-05-07T06:41:34;3.35;;;2.03;;
61038;SDS011;46919;45.816;3.104;2023-05-07T06:44:01;2.45;;;1.88;;
61038;SDS011;46919;45.816;3.104;2023-05-07T06:46:27;6.30;;;1.90;;
61038;SDS011;46919;45.816;3.104;2023-05-07T06:48:52;2.92;;;1.67;;
61038;SDS011;46919;45.816;3.104;2023-05-07T06:51:18;3.80;;;1.58;;
61038;SDS011;46919;45.816;3.104;2023-05-07T06:53:43;3.88;;;1.90;;
61038;SDS011;46919;45.816;3.104;2023-05-07T06:56:09;5.05;;;1.80;;
61038;SDS011;46919;45.816;3.104;2023-05-07T06:58:34;4.40;;;2.08;;
61038;SDS011;46919;45.816;3.104;2023-05-07T07:01:00;6.30;;;2.00;;
61038;SDS011;46919;45.816;3.104;2023-05-07T07:03:25;2.22;;;1.70;;
61038;SDS011;46919;45.816;3.104;2023-05-07T07:05:51;2.92;;;1.90;;
61038;SDS011;46919;45.816;3.104;2023-05-07T07:08:17;3.92;;;2.10;;
61038;SDS011;46919;45.816;3.104;2023-05-07T07:10:43;2.90;;;1.92;;
61038;SDS011;46919;45.816;3.104;2023-05-07T07:13:08;2.42;;;1.70;;
61038;SDS011;46919;45.816;3.104;2023-05-07T07:15:34;2.92;;;1.73;;
61038;SDS011;46919;45.816;3.104;2023-05-07T07:17:59;2.80;;;1.95;;
61038;SDS011;46919;45.816;3.104;2023-05-07T07:20:25;4.47;;;2.10;;
61038;SDS011;46919;45.816;3.104;2023-05-07T07:22:50;8.13;;;2.60;;
61038;SDS011;46919;45.816;3.104;2023-05-07T07:25:15;4.68;;;2.13;;
61038;SDS011;46919;45.816;3.104;2023-05-07T07:27:41;4.65;;;2.10;;
61038;SDS011;46919;45.816;3.104;2023-05-07T07:30:06;5.65;;;2.30;;
61038;SDS011;46919;45.816;3.104;2023-05-07T07:32:33;6.68;;;2.50;;
61038;SDS011;46919;45.816;3.104;2023-05-07T07:34:59;2.95;;;2.13;;
61038;SDS011;46919;45.816;3.104;2023-05-07T07:37:24;2.80;;;2.50;;
61038;SDS011;46919;45.816;3.104;2023-05-07T07:39:50;9.18;;;2.80;;
61038;SDS011;46919;45.816;3.104;2023-05-07T07:42:15;3.83;;;2.70;;
61038;SDS011;46919;45.816;3.104;2023-05-07T07:44:41;6.38;;;2.50;;
61038;SDS011;46919;45.816;3.104;2023-05-07T07:47:06;3.22;;;2.40;;
61038;SDS011;46919;45.816;3.104;2023-05-07T07:49:32;4.75;;;2.40;;
61038;SDS011;46919;45.816;3.104;2023-05-07T07:51:57;5.90;;;2.08;;
61038;SDS011;46919;45.816;3.104;2023-05-07T07:54:24;5.15;;;2.42;;
61038;SDS011;46919;45.816;3.104;2023-05-07T07:56:50;4.90;;;2.47;;
61038;SDS011;46919;45.816;3.104;2023-05-07T07:59:15;4.60;;;2.42;;
61038;SDS011;46919;45.816;3.104;2023-05-07T08:01:43;6.63;;;2.50;;
61038;SDS011;46919;45.816;3.104;2023-05-07T08:04:09;3.58;;;2.30;;
61038;SDS011;46919;45.816;3.104;2023-05-07T08:06:35;7.13;;;2.90;;
61038;SDS011;46919;45.816;3.104;2023-05-07T08:09:00;4.65;;;3.03;;
61038;SDS011;46919;45.816;3.104;2023-05-07T08:11:26;7.05;;;3.00;;
61038;SDS011;46919;45.816;3.104;2023-05-07T08:13:54;7.10;;;3.70;;
61038;SDS011;46919;45.816;3.104;2023-05-07T08:16:21;3.60;;;3.10;;
61038;SDS011;46919;45.816;3.104;2023-05-07T08:18:46;5.40;;;3.30;;
61038;SDS011;46919;45.816;3.104;2023-05-07T08:21:11;7.78;;;3.47;;
61038;SDS011;46919;45.816;3.104;2023-05-07T08:23:37;4.07;;;2.95;;
61038;SDS011;46919;45.816;3.104;2023-05-07T08:26:02;8.07;;;3.58;;
61038;SDS011;46919;45.816;3.104;2023-05-07T08:28:28;6.47;;;3.88;;
61038;SDS011;46919;45.816;3.104;2023-05-07T08:30:53;4.97;;;3.63;;
61038;SDS011;46919;45.816;3.104;2023-05-07T08:33:18;5.85;;;3.70;;
61038;SDS011;46919;45.816;3.104;2023-05-07T08:35:44;6.80;;;4.10;;
61038;SDS011;46919;45.816;3.104;2023-05-07T08:38:09;5.82;;;4.05;;
61038;SDS011;46919;45.816;3.104;2023-05-07T08:40:38;4.03;;;3.60;;
61038;SDS011;46919;45.816;3.104;2023-05-07T08:43:06;4.93;;;3.42;;
61038;SDS011;46919;45.816;3.104;2023-05-07T08:45:32;6.45;;;4.40;;
61038;SDS011;46919;45.816;3.104;2023-05-07T08:47:59;5.28;;;4.13;;
61038;SDS011;46919;45.816;3.104;2023-05-07T08:50:28;6.68;;;4.28;;
61038;SDS011;46919;45.816;3.104;2023-05-07T08:52:53;4.57;;;3.97;;
61038;SDS011;46919;45.816;3.104;2023-05-07T08:55:19;4.72;;;3.35;;
61038;SDS011;46919;45.816;3.104;2023-05-07T08:57:45;6.60;;;3.42;;
61038;SDS011;46919;45.816;3.104;2023-05-07T09:00:12;5.13;;;3.47;;
61038;SDS011;46919;45.816;3.104;2023-05-07T09:02:38;5.47;;;3.63;;
61038;SDS011;46919;45.816;3.104;2023-05-07T09:05:03;7.78;;;3.38;;
61038;SDS011;46919;45.816;3.104;2023-05-07T09:07:29;4.88;;;2.83;;
61038;SDS011;46919;45.816;3.104;2023-05-07T09:09:55;6.38;;;3.38;;
61038;SDS011;46919;45.816;3.104;2023-05-07T09:12:22;6.68;;;3.05;;
61038;SDS011;46919;45.816;3.104;2023-05-07T09:14:47;7.53;;;3.28;;
61038;SDS011;46919;45.816;3.104;2023-05-07T09:17:13;4.63;;;2.80;;
61038;SDS011;46919;45.816;3.104;2023-05-07T09:19:40;5.15;;;2.83;;
61038;SDS011;46919;45.816;3.104;2023-05-07T09:22:06;4.47;;;3.05;;
61038;SDS011;46919;45.816;3.104;2023-05-07T09:24:34;6.57;;;3.65;;
61038;SDS011;46919;45.816;3.104;2023-05-07T09:27:02;4.05;;;2.70;;
61038;SDS011;46919;45.816;3.104;2023-05-07T09:29:28;4.95;;;2.20;;
61038;SDS011;46919;45.816;3.104;2023-05-07T09:31:55;6.20;;;2.20;;
61038;SDS011;46919;45.816;3.104;2023-05-07T09:34:21;3.85;;;1.90;;
61038;SDS011;46919;45.816;3.104;2023-05-07T09:36:47;3.03;;;1.60;;
61038;SDS011;46919;45.816;3.104;2023-05-07T09:39:12;1.77;;;1.10;;
61038;SDS011;46919;45.816;3.104;2023-05-07T09:41:44;3.13;;;1.20;;
61038;SDS011;46919;45.816;3.104;2023-05-07T09:44:11;4.38;;;1.52;;
61038;SDS011;46919;45.816;3.104;2023-05-07T09:46:38;2.30;;;1.30;;
61038;SDS011;46919;45.816;3.104;2023-05-07T09:49:06;5.30;;;1.67;;
61038;SDS011;46919;45.816;3.104;2023-05-07T09:54:04;4.78;;;1.90;;
61038;SDS011;46919;45.816;3.104;2023-05-07T09:56:30;6.32;;;1.50;;
61038;SDS011;46919;45.816;3.104;2023-05-07T09:58:57;3.10;;;1.60;;
61038;SDS011;46919;45.816;3.104;2023-05-07T10:01:25;3.65;;;1.30;;
61038;SDS011;46919;45.816;3.104;2023-05-07T10:03:52;4.00;;;1.75;;
61038;SDS011;46919;45.816;3.104;2023-05-07T10:06:19;4.82;;;1.92;;
61038;SDS011;46919;45.816;3.104;2023-05-07T10:08:45;3.42;;;1.52;;
61038;SDS011;46919;45.816;3.104;2023-05-07T10:11:12;2.42;;;1.40;;
61038;SDS011;46919;45.816;3.104;2023-05-07T10:13:37;4.28;;;1.50;;
61038;SDS011;46919;45.816;3.104;2023-05-07T10:16:03;1.30;;;1.00;;
61038;SDS011;46919;45.816;3.104;2023-05-07T10:18:32;4.68;;;1.50;;
61038;SDS011;46919;45.816;3.104;2023-05-07T10:21:01;2.85;;;1.77;;
61038;SDS011;46919;45.816;3.104;2023-05-07T10:23:35;2.67;;;1.63;;
61038;SDS011;46919;45.816;3.104;2023-05-07T10:26:03;6.93;;;1.75;;
61038;SDS011;46919;45.816;3.104;2023-05-07T10:28:32;5.65;;;2.10;;
61038;SDS011;46919;45.816;3.104;2023-05-07T10:31:06;3.28;;;1.70;;
61038;SDS011;46919;45.816;3.104;2023-05-07T10:33:40;3.88;;;2.17;;
61038;SDS011;46919;45.816;3.104;2023-05-07T10:36:07;2.70;;;2.10;;
61038;SDS011;46919;45.816;3.104;2023-05-07T10:38:33;3.35;;;2.15;;
61038;SDS011;46919;45.816;3.104;2023-05-07T10:40:58;2.90;;;2.00;;
61038;SDS011;46919;45.816;3.104;2023-05-07T10:43:24;4.68;;;2.08;;
61038;SDS011;46919;45.816;3.104;2023-05-07T10:51:31;1.92;;;1.75;;
61038;SDS011;46919;45.816;3.104;2023-05-07T10:56:39;3.33;;;1.98;;
61038;SDS011;46919;45.816;3.104;2023-05-07T11:04:14;3.50;;;2.00;;
61038;SDS011;46919;45.816;3.104;2023-05-07T11:06:40;3.20;;;1.80;;
61038;SDS011;46919;45.816;3.104;2023-05-07T11:09:06;2.83;;;1.98;;
61038;SDS011;46919;45.816;3.104;2023-05-07T11:11:44;6.03;;;2.22;;
61038;SDS011;46919;45.816;3.104;2023-05-07T11:17:09;3.75;;;1.90;;
61038;SDS011;46919;45.816;3.104;2023-05-07T11:19:50;2.53;;;1.70;;
61038;SDS011;46919;45.816;3.104;2023-05-07T11:25:04;5.28;;;1.77;;
61038;SDS011;46919;45.816;3.104;2023-05-07T11:27:31;2.28;;;1.75;;
61038;SDS011;46919;45.816;3.104;2023-05-07T11:29:58;2.97;;;1.95;;
61038;SDS011;46919;45.816;3.104;2023-05-07T11:32:24;2.70;;;2.00;;
61038;SDS011;46919;45.816;3.104;2023-05-07T11:34:52;3.38;;;2.20;;
61038;SDS011;46919;45.816;3.104;2023-05-07T11:37:19;2.75;;;1.80;;
61038;SDS011;46919;45.816;3.104;2023-05-07T11:39:45;4.35;;;2.10;;
61038;SDS011;46919;45.816;3.104;2023-05-07T11:44:56;2.92;;;2.17;;
61038;SDS011;46919;45.816;3.104;2023-05-07T11:47:21;2.20;;;1.77;;
61038;SDS011;46919;45.816;3.104;2023-05-07T11:49:51;3.47;;;1.95;;
61038;SDS011;46919;45.816;3.104;2023-05-07T11:52:19;3.53;;;1.73;;
61038;SDS011;46919;45.816;3.104;2023-05-07T11:54:49;3.53;;;2.00;;
61038;SDS011;46919;45.816;3.104;2023-05-07T11:57:18;2.67;;;1.90;;
61038;SDS011;46919;45.816;3.104;2023-05-07T11:59:43;3.15;;;1.70;;
61038;SDS011;46919;45.816;3.104;2023-05-07T12:02:09;2.58;;;1.50;;
61038;SDS011;46919;45.816;3.104;2023-05-07T12:04:35;4.30;;;1.65;;
61038;SDS011;46919;45.816;3.104;2023-05-07T12:07:02;5.90;;;1.85;;
61038;SDS011;46919;45.816;3.104;2023-05-07T12:09:28;1.95;;;1.80;;
61038;SDS011;46919;45.816;3.104;2023-05-07T12:11:53;4.47;;;1.60;;
61038;SDS011;46919;45.816;3.104;2023-05-07T12:14:21;5.97;;;1.80;;
61038;SDS011;46919;45.816;3.104;2023-05-07T12:16:46;2.22;;;1.80;;
61038;SDS011;46919;45.816;3.104;2023-05-07T12:19:12;4.70;;;1.63;;
61038;SDS011;46919;45.816;3.104;2023-05-07T12:21:38;3.17;;;1.38;;
61038;SDS011;46919;45.816;3.104;2023-05-07T12:24:04;2.85;;;1.63;;
61038;SDS011;46919;45.816;3.104;2023-05-07T12:26:30;4.40;;;1.65;;
61038;SDS011;46919;45.816;3.104;2023-05-07T12:28:57;3.35;;;1.42;;
61038;SDS011;46919;45.816;3.104;2023-05-07T12:31:25;2.15;;;1.40;;
61038;SDS011;46919;45.816;3.104;2023-05-07T12:33:51;3.47;;;1.58;;
61038;SDS011;46919;45.816;3.104;2023-05-07T12:36:16;4.30;;;1.60;;
61038;SDS011;46919;45.816;3.104;2023-05-07T12:38:41;4.78;;;1.80;;
61038;SDS011;46919;45.816;3.104;2023-05-07T12:41:08;2.85;;;1.50;;
61038;SDS011;46919;45.816;3.104;2023-05-07T12:43:35;3.65;;;1.50;;
61038;SDS011;46919;45.816;3.104;2023-05-07T12:46:01;3.78;;;1.50;;
61038;SDS011;46919;45.816;3.104;2023-05-07T12:48:29;3.20;;;1.40;;
61038;SDS011;46919;45.816;3.104;2023-05-07T12:50:56;1.65;;;1.40;;
61038;SDS011;46919;45.816;3.104;2023-05-07T12:53:23;1.50;;;1.27;;
61038;SDS011;46919;45.816;3.104;2023-05-07T12:55:51;2.97;;;1.55;;
61038;SDS011;46919;45.816;3.104;2023-05-07T12:58:18;1.95;;;1.20;;
61038;SDS011;46919;45.816;3.104;2023-05-07T13:00:46;4.03;;;1.42;;
61038;SDS011;46919;45.816;3.104;2023-05-07T13:03:20;2.47;;;1.50;;
61038;SDS011;46919;45.816;3.104;2023-05-07T13:05:47;3.58;;;1.63;;
61038;SDS011;46919;45.816;3.104;2023-05-07T13:08:22;2.58;;;1.80;;
61038;SDS011;46919;45.816;3.104;2023-05-07T13:10:51;3.40;;;1.60;;
61038;SDS011;46919;45.816;3.104;2023-05-07T13:13:17;2.97;;;1.40;;
61038;SDS011;46919;45.816;3.104;2023-05-07T13:15:42;2.30;;;1.42;;
61038;SDS011;46919;45.816;3.104;2023-05-07T13:18:07;3.38;;;1.30;;
61038;SDS011;46919;45.816;3.104;2023-05-07T13:20:35;3.92;;;1.58;;
61038;SDS011;46919;45.816;3.104;2023-05-07T13:23:00;1.92;;;1.40;;
61038;SDS011;46919;45.816;3.104;2023-05-07T13:25:27;1.85;;;1.30;;
61038;SDS011;46919;45.816;3.104;2023-05-07T13:27:52;3.60;;;1.55;;
61038;SDS011;46919;45.816;3.104;2023-05-07T13:30:17;2.72;;;1.20;;
61038;SDS011;46919;45.816;3.104;2023-05-07T13:32:43;2.78;;;1.30;;
61038;SDS011;46919;45.816;3.104;2023-05-07T13:35:10;3.92;;;1.70;;
61038;SDS011;46919;45.816;3.104;2023-05-07T13:37:36;4.03;;;1.52;;
61038;SDS011;46919;45.816;3.104;2023-05-07T13:40:01;4.38;;;1.60;;
61038;SDS011;46919;45.816;3.104;2023-05-07T13:42:27;3.90;;;2.00;;
61038;SDS011;46919;45.816;3.104;2023-05-07T13:44:52;2.50;;;1.38;;
61038;SDS011;46919;45.816;3.104;2023-05-07T13:47:17;3.20;;;1.58;;
61038;SDS011;46919;45.816;3.104;2023-05-07T13:49:43;4.88;;;1.70;;
61038;SDS011;46919;45.816;3.104;2023-05-07T13:52:08;7.93;;;2.22;;
61038;SDS011;46919;45.816;3.104;2023-05-07T13:54:34;4.32;;;2.20;;
61038;SDS011;46919;45.816;3.104;2023-05-07T13:56:59;5.60;;;1.83;;
61038;SDS011;46919;45.816;3.104;2023-05-07T13:59:25;5.78;;;1.48;;
61038;SDS011;46919;45.816;3.104;2023-05-07T14:01:50;5.15;;;1.70;;
61038;SDS011;46919;45.816;3.104;2023-05-07T14:04:16;6.20;;;2.50;;
61038;SDS011;46919;45.816;3.104;2023-05-07T14:06:41;6.20;;;2.97;;
61038;SDS011;46919;45.816;3.104;2023-05-07T14:09:06;5.50;;;2.85;;
61038;SDS011;46919;45.816;3.104;2023-05-07T14:11:32;8.95;;;3.22;;
61038;SDS011;46919;45.816;3.104;2023-05-07T14:13:57;4.70;;;2.25;;
61038;SDS011;46919;45.816;3.104;2023-05-07T14:16:23;3.70;;;1.55;;
61038;SDS011;46919;45.816;3.104;2023-05-07T14:18:48;3.33;;;1.70;;
61038;SDS011;46919;45.816;3.104;2023-05-07T14:21:14;3.05;;;1.77;;
61038;SDS011;46919;45.816;3.104;2023-05-07T14:23:39;4.28;;;1.90;;
61038;SDS011;46919;45.816;3.104;2023-05-07T14:26:05;5.15;;;2.25;;
61038;SDS011;46919;45.816;3.104;2023-05-07T14:28:30;3.83;;;1.80;;
61038;SDS011;46919;45.816;3.104;2023-05-07T14:30:56;2.90;;;1.60;;
61038;SDS011;46919;45.816;3.104;2023-05-07T14:33:21;5.53;;;1.80;;
61038;SDS011;46919;45.816;3.104;2023-05-07T14:35:47;4.38;;;1.95;;
61038;SDS011;46919;45.816;3.104;2023-05-07T14:38:14;5.43;;;2.03;;
61038;SDS011;46919;45.816;3.104;2023-05-07T14:40:40;5.38;;;2.10;;
61038;SDS011;46919;45.816;3.104;2023-05-07T14:43:06;3.05;;;1.65;;
61038;SDS011;46919;45.816;3.104;2023-05-07T14:45:31;3.55;;;1.95;;
61038;SDS011;46919;45.816;3.104;2023-05-07T14:47:56;6.00;;;2.13;;
61038;SDS011;46919;45.816;3.104;2023-05-07T14:50:22;3.08;;;1.73;;
61038;SDS011;46919;45.816;3.104;2023-05-07T14:52:47;7.32;;;2.92;;
61038;SDS011;46919;45.816;3.104;2023-05-07T14:55:13;5.20;;;2.08;;
61038;SDS011;46919;45.816;3.104;2023-05-07T14:57:38;3.90;;;2.00;;
61038;SDS011;46919;45.816;3.104;2023-05-07T15:00:04;4.18;;;2.03;;
61038;SDS011;46919;45.816;3.104;2023-05-07T15:02:30;7.00;;;2.40;;
61038;SDS011;46919;45.816;3.104;2023-05-07T15:04:55;3.13;;;1.60;;